sensor_id;sensor_type;location;lat;lon;timestamp;P1;durP1;ratioP1;P2;durP2;ratioP2
64738;SDS011;51175;51.186;0.276;2023-03-04T00:00:19;9.52;;;3.13;;
64738;SDS011;51175;51.186;0.276;2023-03-04T00:00:49;6.55;;;2.83;;
64738;SDS011;51175;51.186;0.276;2023-03-04T00:01:19;6.40;;;3.25;;
64738;SDS011;51175;51.186;0.276;2023-03-04T00:01:50;7.10;;;3.35;;
64738;SDS011;51175;51.186;0.276;2023-03-04T00:02:20;4.78;;;2.55;;
64738;SDS011;51175;51.186;0.276;2023-03-04T00:02:51;6.20;;;2.88;;
64738;SDS011;51175;51.186;0.276;2023-03-04T00:03:22;10.50;;;3.08;;
64738;SDS011;51175;51.186;0.276;2023-03-04T00:03:52;6.35;;;2.72;;
64738;SDS011;51175;51.186;0.276;2023-03-04T00:04:23;6.65;;;2.80;;
64738;SDS011;51175;51.186;0.276;2023-03-04T00:04:53;6.65;;;3.08;;
64738;SDS011;51175;51.186;0.276;2023-03-04T00:05:23;7.68;;;2.83;;
64738;SDS011;51175;51.186;0.276;2023-03-04T00:05:54;7.35;;;3.13;;
64738;SDS011;51175;51.186;0.276;2023-03-04T00:06:24;9.52;;;2.90;;
64738;SDS011;51175;51.186;0.276;2023-03-04T00:06:54;5.05;;;2.83;;
64738;SDS011;51175;51.186;0.276;2023-03-04T00:07:25;7.20;;;3.30;;
64738;SDS011;51175;51.186;0.276;2023-03-04T00:07:55;6.30;;;2.90;;
64738;SDS011;51175;51.186;0.276;2023-03-04T00:08:25;7.38;;;3.08;;
64738;SDS011;51175;51.186;0.276;2023-03-04T00:08:56;6.95;;;2.92;;
64738;SDS011;51175;51.186;0.276;2023-03-04T00:09:26;7.32;;;2.33;;
64738;SDS011;51175;51.186;0.276;2023-03-04T00:09:57;6.38;;;3.78;;
64738;SDS011;51175;51.186;0.276;2023-03-04T00:10:27;7.18;;;2.63;;
64738;SDS011;51175;51.186;0.276;2023-03-04T00:10:57;7.53;;;3.00;;
64738;SDS011;51175;51.186;0.276;2023-03-04T00:11:28;6.55;;;2.95;;
64738;SDS011;51175;51.186;0.276;2023-03-04T00:11:58;7.93;;;2.70;;
64738;SDS011;51175;51.186;0.276;2023-03-04T00:12:28;8.65;;;3.80;;
64738;SDS011;51175;51.186;0.276;2023-03-04T00:12:59;6.85;;;2.60;;
64738;SDS011;51175;51.186;0.276;2023-03-04T00:13:29;7.78;;;3.35;;
64738;SDS011;51175;51.186;0.276;2023-03-04T00:14:00;8.95;;;2.70;;
64738;SDS011;51175;51.186;0.276;2023-03-04T00:14:30;6.55;;;2.58;;
64738;SDS011;51175;51.186;0.276;2023-03-04T00:15:00;6.63;;;3.42;;
64738;SDS011;51175;51.186;0.276;2023-03-04T00:15:30;7.65;;;3.22;;
64738;SDS011;51175;51.186;0.276;2023-03-04T00:16:01;6.97;;;2.95;;
64738;SDS011;51175;51.186;0.276;2023-03-04T00:16:32;7.15;;;3.05;;
64738;SDS011;51175;51.186;0.276;2023-03-04T00:17:02;6.82;;;2.75;;
64738;SDS011;51175;51.186;0.276;2023-03-04T00:17:33;5.68;;;3.47;;
64738;SDS011;51175;51.186;0.276;2023-03-04T00:18:03;9.70;;;3.42;;
64738;SDS011;51175;51.186;0.276;2023-03-04T00:18:34;5.78;;;2.75;;
64738;SDS011;51175;51.186;0.276;2023-03-04T00:19:04;8.35;;;3.17;;
64738;SDS011;51175;51.186;0.276;2023-03-04T00:19:35;5.13;;;2.33;;
64738;SDS011;51175;51.186;0.276;2023-03-04T00:20:05;9.95;;;2.85;;
64738;SDS011;51175;51.186;0.276;2023-03-04T00:20:36;7.10;;;2.97;;
64738;SDS011;51175;51.186;0.276;2023-03-04T00:21:07;6.95;;;2.80;;
64738;SDS011;51175;51.186;0.276;2023-03-04T00:21:37;6.20;;;2.72;;
64738;SDS011;51175;51.186;0.276;2023-03-04T00:22:07;7.55;;;3.55;;
64738;SDS011;51175;51.186;0.276;2023-03-04T00:22:38;9.18;;;3.35;;
64738;SDS011;51175;51.186;0.276;2023-03-04T00:23:08;8.98;;;2.60;;
64738;SDS011;51175;51.186;0.276;2023-03-04T00:23:38;10.55;;;3.35;;
64738;SDS011;51175;51.186;0.276;2023-03-04T00:24:10;10.65;;;2.63;;
64738;SDS011;51175;51.186;0.276;2023-03-04T00:24:40;7.85;;;2.70;;
64738;SDS011;51175;51.186;0.276;2023-03-04T00:25:10;7.00;;;2.50;;
64738;SDS011;51175;51.186;0.276;2023-03-04T00:25:41;8.68;;;2.80;;
64738;SDS011;51175;51.186;0.276;2023-03-04T00:26:11;10.93;;;4.35;;
64738;SDS011;51175;51.186;0.276;2023-03-04T00:26:42;6.90;;;2.70;;
64738;SDS011;51175;51.186;0.276;2023-03-04T00:27:12;7.97;;;2.80;;
64738;SDS011;51175;51.186;0.276;2023-03-04T00:27:43;6.35;;;2.70;;
64738;SDS011;51175;51.186;0.276;2023-03-04T00:28:13;8.25;;;3.22;;
64738;SDS011;51175;51.186;0.276;2023-03-04T00:28:44;9.90;;;3.83;;
64738;SDS011;51175;51.186;0.276;2023-03-04T00:29:14;9.57;;;3.47;;
64738;SDS011;51175;51.186;0.276;2023-03-04T00:29:44;8.18;;;2.63;;
64738;SDS011;51175;51.186;0.276;2023-03-04T00:30:15;7.35;;;3.22;;
64738;SDS011;51175;51.186;0.276;2023-03-04T00:30:45;11.38;;;4.07;;
64738;SDS011;51175;51.186;0.276;2023-03-04T00:31:16;9.02;;;4.38;;
64738;SDS011;51175;51.186;0.276;2023-03-04T00:31:46;6.43;;;3.22;;
64738;SDS011;51175;51.186;0.276;2023-03-04T00:32:17;6.05;;;3.67;;
64738;SDS011;51175;51.186;0.276;2023-03-04T00:32:47;10.40;;;3.33;;
64738;SDS011;51175;51.186;0.276;2023-03-04T00:33:17;7.88;;;3.25;;
64738;SDS011;51175;51.186;0.276;2023-03-04T00:33:48;7.05;;;2.90;;
64738;SDS011;51175;51.186;0.276;2023-03-04T00:34:18;6.50;;;3.03;;
64738;SDS011;51175;51.186;0.276;2023-03-04T00:34:49;6.00;;;2.67;;
64738;SDS011;51175;51.186;0.276;2023-03-04T00:35:19;9.05;;;2.63;;
64738;SDS011;51175;51.186;0.276;2023-03-04T00:35:50;11.20;;;4.03;;
64738;SDS011;51175;51.186;0.276;2023-03-04T00:36:20;6.50;;;3.00;;
64738;SDS011;51175;51.186;0.276;2023-03-04T00:36:51;6.93;;;2.35;;
64738;SDS011;51175;51.186;0.276;2023-03-04T00:37:21;6.80;;;2.60;;
64738;SDS011;51175;51.186;0.276;2023-03-04T00:37:51;8.70;;;3.42;;
64738;SDS011;51175;51.186;0.276;2023-03-04T00:38:22;7.72;;;3.17;;
64738;SDS011;51175;51.186;0.276;2023-03-04T00:38:52;10.43;;;4.03;;
64738;SDS011;51175;51.186;0.276;2023-03-04T00:39:22;5.22;;;2.80;;
64738;SDS011;51175;51.186;0.276;2023-03-04T00:39:53;7.65;;;2.88;;
64738;SDS011;51175;51.186;0.276;2023-03-04T00:40:23;6.28;;;2.60;;
64738;SDS011;51175;51.186;0.276;2023-03-04T00:40:53;8.05;;;3.17;;
64738;SDS011;51175;51.186;0.276;2023-03-04T00:41:24;6.22;;;2.90;;
64738;SDS011;51175;51.186;0.276;2023-03-04T00:41:54;6.85;;;3.22;;
64738;SDS011;51175;51.186;0.276;2023-03-04T00:42:25;6.00;;;2.92;;
64738;SDS011;51175;51.186;0.276;2023-03-04T00:42:55;9.13;;;3.78;;
64738;SDS011;51175;51.186;0.276;2023-03-04T00:43:25;8.93;;;3.08;;
64738;SDS011;51175;51.186;0.276;2023-03-04T00:43:56;5.18;;;2.60;;
64738;SDS011;51175;51.186;0.276;2023-03-04T00:44:26;6.22;;;3.10;;
64738;SDS011;51175;51.186;0.276;2023-03-04T00:44:56;7.90;;;3.45;;
64738;SDS011;51175;51.186;0.276;2023-03-04T00:45:27;6.13;;;2.40;;
64738;SDS011;51175;51.186;0.276;2023-03-04T00:45:57;5.88;;;2.72;;
64738;SDS011;51175;51.186;0.276;2023-03-04T00:46:27;5.45;;;2.53;;
64738;SDS011;51175;51.186;0.276;2023-03-04T00:46:58;6.78;;;3.08;;
64738;SDS011;51175;51.186;0.276;2023-03-04T00:47:28;7.93;;;2.83;;
64738;SDS011;51175;51.186;0.276;2023-03-04T00:47:58;9.07;;;3.38;;
64738;SDS011;51175;51.186;0.276;2023-03-04T00:48:29;7.25;;;2.80;;
64738;SDS011;51175;51.186;0.276;2023-03-04T00:48:59;6.72;;;2.33;;
64738;SDS011;51175;51.186;0.276;2023-03-04T00:49:29;7.65;;;3.38;;
64738;SDS011;51175;51.186;0.276;2023-03-04T00:50:00;8.25;;;2.85;;
64738;SDS011;51175;51.186;0.276;2023-03-04T00:50:30;9.35;;;2.75;;
64738;SDS011;51175;51.186;0.276;2023-03-04T00:51:01;6.68;;;3.20;;
64738;SDS011;51175;51.186;0.276;2023-03-04T00:51:31;5.53;;;2.92;;
64738;SDS011;51175;51.186;0.276;2023-03-04T00:52:01;7.15;;;3.45;;
64738;SDS011;51175;51.186;0.276;2023-03-04T00:52:32;6.65;;;2.42;;
64738;SDS011;51175;51.186;0.276;2023-03-04T00:53:02;8.63;;;2.53;;
64738;SDS011;51175;51.186;0.276;2023-03-04T00:53:33;7.90;;;3.40;;
64738;SDS011;51175;51.186;0.276;2023-03-04T00:54:03;6.57;;;2.58;;
64738;SDS011;51175;51.186;0.276;2023-03-04T00:54:33;9.25;;;3.10;;
64738;SDS011;51175;51.186;0.276;2023-03-04T00:55:04;6.38;;;2.92;;
64738;SDS011;51175;51.186;0.276;2023-03-04T00:55:35;6.45;;;3.17;;
64738;SDS011;51175;51.186;0.276;2023-03-04T00:56:06;5.63;;;2.40;;
64738;SDS011;51175;51.186;0.276;2023-03-04T00:56:36;7.65;;;2.72;;
64738;SDS011;51175;51.186;0.276;2023-03-04T00:57:07;7.35;;;3.20;;
64738;SDS011;51175;51.186;0.276;2023-03-04T00:57:37;6.18;;;2.55;;
64738;SDS011;51175;51.186;0.276;2023-03-04T00:58:07;8.32;;;3.30;;
64738;SDS011;51175;51.186;0.276;2023-03-04T00:58:38;7.43;;;3.28;;
64738;SDS011;51175;51.186;0.276;2023-03-04T00:59:09;8.13;;;3.20;;
64738;SDS011;51175;51.186;0.276;2023-03-04T00:59:39;10.07;;;3.70;;
64738;SDS011;51175;51.186;0.276;2023-03-04T01:00:10;8.75;;;3.05;;
64738;SDS011;51175;51.186;0.276;2023-03-04T01:00:41;8.50;;;3.03;;
64738;SDS011;51175;51.186;0.276;2023-03-04T01:01:11;6.97;;;2.70;;
64738;SDS011;51175;51.186;0.276;2023-03-04T01:01:42;6.13;;;3.25;;
64738;SDS011;51175;51.186;0.276;2023-03-04T01:02:12;8.35;;;2.63;;
64738;SDS011;51175;51.186;0.276;2023-03-04T01:02:42;8.15;;;2.92;;
64738;SDS011;51175;51.186;0.276;2023-03-04T01:03:13;7.35;;;2.60;;
64738;SDS011;51175;51.186;0.276;2023-03-04T01:03:43;6.88;;;2.70;;
64738;SDS011;51175;51.186;0.276;2023-03-04T01:04:14;4.63;;;2.65;;
64738;SDS011;51175;51.186;0.276;2023-03-04T01:04:44;6.80;;;2.50;;
64738;SDS011;51175;51.186;0.276;2023-03-04T01:05:14;5.10;;;2.40;;
64738;SDS011;51175;51.186;0.276;2023-03-04T01:05:45;5.82;;;2.30;;
64738;SDS011;51175;51.186;0.276;2023-03-04T01:06:15;5.13;;;2.42;;
64738;SDS011;51175;51.186;0.276;2023-03-04T01:06:46;9.70;;;3.22;;
64738;SDS011;51175;51.186;0.276;2023-03-04T01:07:16;10.90;;;2.42;;
64738;SDS011;51175;51.186;0.276;2023-03-04T01:07:47;8.52;;;2.88;;
64738;SDS011;51175;51.186;0.276;2023-03-04T01:08:17;7.28;;;3.42;;
64738;SDS011;51175;51.186;0.276;2023-03-04T01:08:47;9.43;;;2.75;;
64738;SDS011;51175;51.186;0.276;2023-03-04T01:09:18;5.45;;;2.05;;
64738;SDS011;51175;51.186;0.276;2023-03-04T01:09:48;6.30;;;2.95;;
64738;SDS011;51175;51.186;0.276;2023-03-04T01:10:19;6.00;;;3.35;;
64738;SDS011;51175;51.186;0.276;2023-03-04T01:10:49;7.07;;;2.67;;
64738;SDS011;51175;51.186;0.276;2023-03-04T01:11:20;4.47;;;2.45;;
64738;SDS011;51175;51.186;0.276;2023-03-04T01:11:50;8.70;;;2.78;;
64738;SDS011;51175;51.186;0.276;2023-03-04T01:12:20;8.15;;;2.75;;
64738;SDS011;51175;51.186;0.276;2023-03-04T01:12:51;5.63;;;2.90;;
64738;SDS011;51175;51.186;0.276;2023-03-04T01:13:21;7.82;;;2.67;;
64738;SDS011;51175;51.186;0.276;2023-03-04T01:13:52;6.10;;;2.40;;
64738;SDS011;51175;51.186;0.276;2023-03-04T01:14:22;6.22;;;2.80;;
64738;SDS011;51175;51.186;0.276;2023-03-04T01:14:52;6.40;;;2.78;;
64738;SDS011;51175;51.186;0.276;2023-03-04T01:15:23;9.68;;;3.08;;
64738;SDS011;51175;51.186;0.276;2023-03-04T01:15:53;5.53;;;2.40;;
64738;SDS011;51175;51.186;0.276;2023-03-04T01:16:24;8.20;;;2.45;;
64738;SDS011;51175;51.186;0.276;2023-03-04T01:16:55;4.57;;;2.40;;
64738;SDS011;51175;51.186;0.276;2023-03-04T01:17:25;7.55;;;3.17;;
64738;SDS011;51175;51.186;0.276;2023-03-04T01:17:56;6.00;;;2.47;;
64738;SDS011;51175;51.186;0.276;2023-03-04T01:18:26;5.60;;;2.22;;
64738;SDS011;51175;51.186;0.276;2023-03-04T01:18:56;5.55;;;2.92;;
64738;SDS011;51175;51.186;0.276;2023-03-04T01:19:27;5.15;;;2.28;;
64738;SDS011;51175;51.186;0.276;2023-03-04T01:19:57;6.18;;;2.92;;
64738;SDS011;51175;51.186;0.276;2023-03-04T01:20:27;7.35;;;2.78;;
64738;SDS011;51175;51.186;0.276;2023-03-04T01:20:58;7.00;;;3.25;;
64738;SDS011;51175;51.186;0.276;2023-03-04T01:21:28;5.55;;;2.97;;
64738;SDS011;51175;51.186;0.276;2023-03-04T01:21:58;6.25;;;2.28;;
64738;SDS011;51175;51.186;0.276;2023-03-04T01:22:29;7.05;;;2.67;;
64738;SDS011;51175;51.186;0.276;2023-03-04T01:22:59;6.28;;;2.33;;
64738;SDS011;51175;51.186;0.276;2023-03-04T01:23:29;5.43;;;3.40;;
64738;SDS011;51175;51.186;0.276;2023-03-04T01:24:00;5.43;;;2.67;;
64738;SDS011;51175;51.186;0.276;2023-03-04T01:24:30;8.13;;;2.85;;
64738;SDS011;51175;51.186;0.276;2023-03-04T01:25:01;7.30;;;2.45;;
64738;SDS011;51175;51.186;0.276;2023-03-04T01:25:32;7.65;;;3.38;;
64738;SDS011;51175;51.186;0.276;2023-03-04T01:26:03;8.27;;;2.67;;
64738;SDS011;51175;51.186;0.276;2023-03-04T01:26:33;10.38;;;3.20;;
64738;SDS011;51175;51.186;0.276;2023-03-04T01:27:04;7.00;;;2.78;;
64738;SDS011;51175;51.186;0.276;2023-03-04T01:27:34;7.35;;;2.47;;
64738;SDS011;51175;51.186;0.276;2023-03-04T01:28:04;7.00;;;2.13;;
64738;SDS011;51175;51.186;0.276;2023-03-04T01:28:35;7.07;;;2.70;;
64738;SDS011;51175;51.186;0.276;2023-03-04T01:29:05;6.65;;;2.53;;
64738;SDS011;51175;51.186;0.276;2023-03-04T01:29:35;6.50;;;2.15;;
64738;SDS011;51175;51.186;0.276;2023-03-04T01:30:06;7.22;;;2.65;;
64738;SDS011;51175;51.186;0.276;2023-03-04T01:30:37;5.07;;;2.05;;
64738;SDS011;51175;51.186;0.276;2023-03-04T01:31:07;7.28;;;2.35;;
64738;SDS011;51175;51.186;0.276;2023-03-04T01:31:37;5.53;;;2.10;;
64738;SDS011;51175;51.186;0.276;2023-03-04T01:32:08;5.78;;;2.40;;
64738;SDS011;51175;51.186;0.276;2023-03-04T01:32:38;7.88;;;2.65;;
64738;SDS011;51175;51.186;0.276;2023-03-04T01:33:09;7.32;;;2.20;;
64738;SDS011;51175;51.186;0.276;2023-03-04T01:33:39;5.63;;;2.88;;
64738;SDS011;51175;51.186;0.276;2023-03-04T01:34:09;7.72;;;2.72;;
64738;SDS011;51175;51.186;0.276;2023-03-04T01:34:40;7.55;;;2.78;;
64738;SDS011;51175;51.186;0.276;2023-03-04T01:35:10;7.55;;;2.25;;
64738;SDS011;51175;51.186;0.276;2023-03-04T01:35:40;4.00;;;2.17;;
64738;SDS011;51175;51.186;0.276;2023-03-04T01:36:11;5.22;;;2.50;;
64738;SDS011;51175;51.186;0.276;2023-03-04T01:36:41;5.50;;;2.40;;
64738;SDS011;51175;51.186;0.276;2023-03-04T01:37:11;7.97;;;2.50;;
64738;SDS011;51175;51.186;0.276;2023-03-04T01:37:45;6.80;;;2.25;;
64738;SDS011;51175;51.186;0.276;2023-03-04T01:38:15;3.95;;;2.30;;
64738;SDS011;51175;51.186;0.276;2023-03-04T01:38:46;6.07;;;2.83;;
64738;SDS011;51175;51.186;0.276;2023-03-04T01:39:16;6.50;;;2.22;;
64738;SDS011;51175;51.186;0.276;2023-03-04T01:39:46;5.13;;;2.55;;
64738;SDS011;51175;51.186;0.276;2023-03-04T01:40:17;6.13;;;2.15;;
64738;SDS011;51175;51.186;0.276;2023-03-04T01:40:47;6.63;;;2.58;;
64738;SDS011;51175;51.186;0.276;2023-03-04T01:41:20;7.35;;;3.25;;
64738;SDS011;51175;51.186;0.276;2023-03-04T01:41:53;7.82;;;2.67;;
64738;SDS011;51175;51.186;0.276;2023-03-04T01:42:23;6.68;;;2.60;;
64738;SDS011;51175;51.186;0.276;2023-03-04T01:42:56;6.30;;;3.25;;
64738;SDS011;51175;51.186;0.276;2023-03-04T01:43:27;6.50;;;2.28;;
64738;SDS011;51175;51.186;0.276;2023-03-04T01:43:59;5.97;;;2.35;;
64738;SDS011;51175;51.186;0.276;2023-03-04T01:44:31;6.97;;;2.20;;
64738;SDS011;51175;51.186;0.276;2023-03-04T01:45:02;8.15;;;2.20;;
64738;SDS011;51175;51.186;0.276;2023-03-04T01:45:33;6.35;;;2.13;;
64738;SDS011;51175;51.186;0.276;2023-03-04T01:46:05;4.45;;;1.80;;
64738;SDS011;51175;51.186;0.276;2023-03-04T01:46:36;5.72;;;2.38;;
64738;SDS011;51175;51.186;0.276;2023-03-04T01:47:07;5.03;;;2.45;;
64738;SDS011;51175;51.186;0.276;2023-03-04T01:47:38;5.05;;;2.53;;
64738;SDS011;51175;51.186;0.276;2023-03-04T01:48:09;6.75;;;2.65;;
64738;SDS011;51175;51.186;0.276;2023-03-04T01:48:44;6.50;;;2.72;;
64738;SDS011;51175;51.186;0.276;2023-03-04T01:49:15;7.28;;;2.35;;
64738;SDS011;51175;51.186;0.276;2023-03-04T01:49:46;7.97;;;3.78;;
64738;SDS011;51175;51.186;0.276;2023-03-04T01:50:23;5.70;;;2.63;;
64738;SDS011;51175;51.186;0.276;2023-03-04T01:50:59;7.10;;;2.08;;
64738;SDS011;51175;51.186;0.276;2023-03-04T01:51:32;7.75;;;2.15;;
64738;SDS011;51175;51.186;0.276;2023-03-04T01:52:02;6.93;;;1.90;;
64738;SDS011;51175;51.186;0.276;2023-03-04T01:52:33;8.75;;;2.92;;
64738;SDS011;51175;51.186;0.276;2023-03-04T01:53:03;4.78;;;2.40;;
64738;SDS011;51175;51.186;0.276;2023-03-04T01:53:33;7.05;;;3.20;;
64738;SDS011;51175;51.186;0.276;2023-03-04T01:54:04;4.88;;;2.50;;
64738;SDS011;51175;51.186;0.276;2023-03-04T01:54:34;3.67;;;1.48;;
64738;SDS011;51175;51.186;0.276;2023-03-04T01:55:08;6.03;;;2.25;;
64738;SDS011;51175;51.186;0.276;2023-03-04T01:55:44;6.78;;;2.40;;
64738;SDS011;51175;51.186;0.276;2023-03-04T01:56:19;4.57;;;2.13;;
64738;SDS011;51175;51.186;0.276;2023-03-04T01:56:52;10.30;;;2.70;;
64738;SDS011;51175;51.186;0.276;2023-03-04T01:57:24;6.38;;;2.10;;
64738;SDS011;51175;51.186;0.276;2023-03-04T01:57:55;7.32;;;2.58;;
64738;SDS011;51175;51.186;0.276;2023-03-04T01:58:29;7.43;;;2.42;;
64738;SDS011;51175;51.186;0.276;2023-03-04T02:00:10;5.28;;;2.40;;
64738;SDS011;51175;51.186;0.276;2023-03-04T02:00:43;7.35;;;3.28;;
64738;SDS011;51175;51.186;0.276;2023-03-04T02:01:14;6.72;;;2.92;;
64738;SDS011;51175;51.186;0.276;2023-03-04T02:01:45;5.47;;;2.22;;
64738;SDS011;51175;51.186;0.276;2023-03-04T02:02:20;7.63;;;2.22;;
64738;SDS011;51175;51.186;0.276;2023-03-04T02:03:01;6.03;;;2.30;;
64738;SDS011;51175;51.186;0.276;2023-03-04T02:03:36;4.38;;;2.30;;
64738;SDS011;51175;51.186;0.276;2023-03-04T02:04:09;7.07;;;2.33;;
64738;SDS011;51175;51.186;0.276;2023-03-04T02:04:40;5.45;;;2.17;;
64738;SDS011;51175;51.186;0.276;2023-03-04T02:05:11;4.53;;;1.83;;
64738;SDS011;51175;51.186;0.276;2023-03-04T02:05:43;5.57;;;1.83;;
64738;SDS011;51175;51.186;0.276;2023-03-04T02:06:16;3.58;;;1.85;;
64738;SDS011;51175;51.186;0.276;2023-03-04T02:06:46;4.47;;;1.98;;
64738;SDS011;51175;51.186;0.276;2023-03-04T02:07:18;7.25;;;2.20;;
64738;SDS011;51175;51.186;0.276;2023-03-04T02:07:48;4.72;;;1.60;;
64738;SDS011;51175;51.186;0.276;2023-03-04T02:08:20;5.88;;;2.00;;
64738;SDS011;51175;51.186;0.276;2023-03-04T02:08:52;5.88;;;1.83;;
64738;SDS011;51175;51.186;0.276;2023-03-04T02:09:22;3.80;;;1.63;;
64738;SDS011;51175;51.186;0.276;2023-03-04T02:09:53;7.47;;;1.60;;
64738;SDS011;51175;51.186;0.276;2023-03-04T02:10:23;5.18;;;2.20;;
64738;SDS011;51175;51.186;0.276;2023-03-04T02:10:54;6.60;;;2.10;;
64738;SDS011;51175;51.186;0.276;2023-03-04T02:11:25;6.05;;;2.13;;
64738;SDS011;51175;51.186;0.276;2023-03-04T02:11:55;7.38;;;2.20;;
64738;SDS011;51175;51.186;0.276;2023-03-04T02:12:26;5.10;;;1.98;;
64738;SDS011;51175;51.186;0.276;2023-03-04T02:12:57;6.53;;;1.88;;
64738;SDS011;51175;51.186;0.276;2023-03-04T02:13:29;5.43;;;1.80;;
64738;SDS011;51175;51.186;0.276;2023-03-04T02:13:59;2.88;;;1.45;;
64738;SDS011;51175;51.186;0.276;2023-03-04T02:14:30;5.45;;;2.60;;
64738;SDS011;51175;51.186;0.276;2023-03-04T02:15:00;7.03;;;1.75;;
64738;SDS011;51175;51.186;0.276;2023-03-04T02:15:31;6.55;;;2.35;;
64738;SDS011;51175;51.186;0.276;2023-03-04T02:16:01;5.85;;;2.05;;
64738;SDS011;51175;51.186;0.276;2023-03-04T02:16:32;5.25;;;1.75;;
64738;SDS011;51175;51.186;0.276;2023-03-04T02:17:05;4.50;;;1.17;;
64738;SDS011;51175;51.186;0.276;2023-03-04T02:17:40;3.67;;;1.70;;
64738;SDS011;51175;51.186;0.276;2023-03-04T02:18:17;4.13;;;2.03;;
64738;SDS011;51175;51.186;0.276;2023-03-04T02:18:49;4.78;;;1.90;;
64738;SDS011;51175;51.186;0.276;2023-03-04T02:21:55;4.68;;;2.00;;
64738;SDS011;51175;51.186;0.276;2023-03-04T02:22:25;5.18;;;1.98;;
64738;SDS011;51175;51.186;0.276;2023-03-04T02:24:44;6.80;;;1.90;;
64738;SDS011;51175;51.186;0.276;2023-03-04T02:25:21;5.57;;;2.38;;
64738;SDS011;51175;51.186;0.276;2023-03-04T02:26:12;11.38;;;2.53;;
64738;SDS011;51175;51.186;0.276;2023-03-04T02:26:50;5.03;;;1.73;;
64738;SDS011;51175;51.186;0.276;2023-03-04T02:27:20;6.47;;;1.73;;
64738;SDS011;51175;51.186;0.276;2023-03-04T02:27:51;6.45;;;2.10;;
64738;SDS011;51175;51.186;0.276;2023-03-04T02:28:22;5.40;;;1.95;;
64738;SDS011;51175;51.186;0.276;2023-03-04T02:28:53;8.00;;;1.90;;
64738;SDS011;51175;51.186;0.276;2023-03-04T02:29:24;3.92;;;1.63;;
64738;SDS011;51175;51.186;0.276;2023-03-04T02:29:54;7.20;;;1.48;;
64738;SDS011;51175;51.186;0.276;2023-03-04T02:30:24;2.45;;;1.35;;
64738;SDS011;51175;51.186;0.276;2023-03-04T02:30:55;4.40;;;1.88;;
64738;SDS011;51175;51.186;0.276;2023-03-04T02:32:04;9.82;;;2.22;;
64738;SDS011;51175;51.186;0.276;2023-03-04T02:32:35;5.85;;;2.45;;
64738;SDS011;51175;51.186;0.276;2023-03-04T02:33:05;5.82;;;2.22;;
64738;SDS011;51175;51.186;0.276;2023-03-04T02:33:36;9.77;;;2.55;;
64738;SDS011;51175;51.186;0.276;2023-03-04T02:34:13;6.70;;;1.85;;
64738;SDS011;51175;51.186;0.276;2023-03-04T02:34:47;3.75;;;2.00;;
64738;SDS011;51175;51.186;0.276;2023-03-04T02:35:19;7.38;;;2.38;;
64738;SDS011;51175;51.186;0.276;2023-03-04T02:35:50;3.92;;;2.38;;
64738;SDS011;51175;51.186;0.276;2023-03-04T02:36:21;5.68;;;1.67;;
64738;SDS011;51175;51.186;0.276;2023-03-04T02:36:52;4.40;;;1.67;;
64738;SDS011;51175;51.186;0.276;2023-03-04T02:37:24;4.55;;;1.95;;
64738;SDS011;51175;51.186;0.276;2023-03-04T02:37:54;3.97;;;1.33;;
64738;SDS011;51175;51.186;0.276;2023-03-04T02:38:24;5.28;;;1.58;;
64738;SDS011;51175;51.186;0.276;2023-03-04T02:38:56;4.97;;;2.00;;
64738;SDS011;51175;51.186;0.276;2023-03-04T02:39:33;3.83;;;1.50;;
64738;SDS011;51175;51.186;0.276;2023-03-04T02:40:05;6.68;;;1.70;;
64738;SDS011;51175;51.186;0.276;2023-03-04T02:40:38;4.45;;;1.65;;
64738;SDS011;51175;51.186;0.276;2023-03-04T02:41:12;6.50;;;2.15;;
64738;SDS011;51175;51.186;0.276;2023-03-04T02:41:49;6.68;;;2.95;;
64738;SDS011;51175;51.186;0.276;2023-03-04T02:42:21;6.15;;;1.83;;
64738;SDS011;51175;51.186;0.276;2023-03-04T02:42:51;4.90;;;1.70;;
64738;SDS011;51175;51.186;0.276;2023-03-04T02:43:22;8.38;;;1.95;;
64738;SDS011;51175;51.186;0.276;2023-03-04T02:43:53;5.43;;;2.70;;
64738;SDS011;51175;51.186;0.276;2023-03-04T02:44:32;4.13;;;2.00;;
64738;SDS011;51175;51.186;0.276;2023-03-04T02:45:03;4.35;;;1.55;;
64738;SDS011;51175;51.186;0.276;2023-03-04T02:45:38;6.03;;;1.85;;
64738;SDS011;51175;51.186;0.276;2023-03-04T02:46:12;3.17;;;1.88;;
64738;SDS011;51175;51.186;0.276;2023-03-04T02:46:43;3.17;;;1.45;;
64738;SDS011;51175;51.186;0.276;2023-03-04T02:47:14;6.70;;;2.13;;
64738;SDS011;51175;51.186;0.276;2023-03-04T02:47:49;6.82;;;2.40;;
64738;SDS011;51175;51.186;0.276;2023-03-04T02:48:20;2.80;;;1.30;;
64738;SDS011;51175;51.186;0.276;2023-03-04T02:48:51;5.30;;;1.95;;
64738;SDS011;51175;51.186;0.276;2023-03-04T02:49:22;5.53;;;1.25;;
64738;SDS011;51175;51.186;0.276;2023-03-04T02:49:55;6.47;;;1.60;;
64738;SDS011;51175;51.186;0.276;2023-03-04T02:50:26;4.68;;;1.60;;
64738;SDS011;51175;51.186;0.276;2023-03-04T02:50:58;4.80;;;1.80;;
64738;SDS011;51175;51.186;0.276;2023-03-04T02:51:29;5.97;;;1.83;;
64738;SDS011;51175;51.186;0.276;2023-03-04T02:52:00;7.20;;;1.58;;
64738;SDS011;51175;51.186;0.276;2023-03-04T02:52:35;4.22;;;1.60;;
64738;SDS011;51175;51.186;0.276;2023-03-04T02:53:06;3.60;;;1.70;;
64738;SDS011;51175;51.186;0.276;2023-03-04T02:53:37;6.28;;;1.88;;
64738;SDS011;51175;51.186;0.276;2023-03-04T02:54:17;3.60;;;1.75;;
64738;SDS011;51175;51.186;0.276;2023-03-04T02:54:50;6.45;;;2.42;;
64738;SDS011;51175;51.186;0.276;2023-03-04T02:55:21;5.68;;;1.70;;
64738;SDS011;51175;51.186;0.276;2023-03-04T02:55:51;7.68;;;1.88;;
64738;SDS011;51175;51.186;0.276;2023-03-04T02:56:21;5.55;;;1.42;;
64738;SDS011;51175;51.186;0.276;2023-03-04T02:56:53;5.55;;;1.88;;
64738;SDS011;51175;51.186;0.276;2023-03-04T02:57:25;5.85;;;1.65;;
64738;SDS011;51175;51.186;0.276;2023-03-04T02:57:56;3.70;;;1.52;;
64738;SDS011;51175;51.186;0.276;2023-03-04T02:58:26;4.93;;;1.77;;
64738;SDS011;51175;51.186;0.276;2023-03-04T02:58:56;4.30;;;1.98;;
64738;SDS011;51175;51.186;0.276;2023-03-04T02:59:27;5.72;;;1.75;;
64738;SDS011;51175;51.186;0.276;2023-03-04T02:59:58;3.83;;;1.52;;
64738;SDS011;51175;51.186;0.276;2023-03-04T03:00:28;5.85;;;1.95;;
64738;SDS011;51175;51.186;0.276;2023-03-04T03:00:58;3.90;;;2.38;;
64738;SDS011;51175;51.186;0.276;2023-03-04T03:01:29;3.67;;;1.52;;
64738;SDS011;51175;51.186;0.276;2023-03-04T03:01:59;5.30;;;1.92;;
64738;SDS011;51175;51.186;0.276;2023-03-04T03:02:29;4.63;;;1.50;;
64738;SDS011;51175;51.186;0.276;2023-03-04T03:03:00;5.38;;;2.05;;
64738;SDS011;51175;51.186;0.276;2023-03-04T03:03:30;4.45;;;1.85;;
64738;SDS011;51175;51.186;0.276;2023-03-04T03:04:01;3.70;;;1.20;;
64738;SDS011;51175;51.186;0.276;2023-03-04T03:04:31;5.85;;;2.08;;
64738;SDS011;51175;51.186;0.276;2023-03-04T03:05:03;5.85;;;1.95;;
64738;SDS011;51175;51.186;0.276;2023-03-04T03:05:34;4.60;;;2.08;;
64738;SDS011;51175;51.186;0.276;2023-03-04T03:06:05;4.30;;;1.60;;
64738;SDS011;51175;51.186;0.276;2023-03-04T03:06:35;4.97;;;1.60;;
64738;SDS011;51175;51.186;0.276;2023-03-04T03:07:06;5.50;;;1.90;;
64738;SDS011;51175;51.186;0.276;2023-03-04T03:07:37;5.47;;;1.80;;
64738;SDS011;51175;51.186;0.276;2023-03-04T03:08:07;4.93;;;1.98;;
64738;SDS011;51175;51.186;0.276;2023-03-04T03:08:38;2.90;;;1.60;;
64738;SDS011;51175;51.186;0.276;2023-03-04T03:09:08;3.90;;;1.80;;
64738;SDS011;51175;51.186;0.276;2023-03-04T03:09:38;4.60;;;1.42;;
64738;SDS011;51175;51.186;0.276;2023-03-04T03:10:09;5.78;;;1.88;;
64738;SDS011;51175;51.186;0.276;2023-03-04T03:10:40;4.78;;;1.63;;
64738;SDS011;51175;51.186;0.276;2023-03-04T03:11:10;3.35;;;1.25;;
64738;SDS011;51175;51.186;0.276;2023-03-04T03:11:41;3.45;;;1.40;;
64738;SDS011;51175;51.186;0.276;2023-03-04T03:12:12;3.45;;;1.40;;
64738;SDS011;51175;51.186;0.276;2023-03-04T03:12:42;5.40;;;1.27;;
64738;SDS011;51175;51.186;0.276;2023-03-04T03:13:12;3.50;;;1.60;;
64738;SDS011;51175;51.186;0.276;2023-03-04T03:13:43;3.95;;;1.38;;